Etusivu
METAR-TAF:

METAR-TAF

Lentoasemat :

Rabat, Marokko

Leveyspiiri: 34-03N, Pituuspiiri: 006-46W, korkeus merenpinnasta: 84 m

Tämänhetkinen sää

Tämä raportti tehtiin 33 minuuttia sitten, kello 17.00 UTC
Tuuli 6 kn pohjoisesta
Lämpötila 18°C
Kosteus 73%
Ilmanpaine 1016 hPa
Näkyvyys: 8000 m

METAR: GMME 171700Z 01006KT 8000 NSC 18/13 Q1016 NOSIG

Aika: 17:33 (17:33 UTC)

Sääennuste

Tämä raportti tehtiin 6 tuntia ja 33 minuuttia sitten, kello 11.00 UTC
Ennuste voimassa 17. päivästä klo 12 UTC - 18. päivään klo 18 UTC
Tuuli 10 kn pohjoisen/luoteesta
Näkyvyys: 8000 m
Ajoittain
17. päivästä klo 22 UTC - 18. päivään klo 04 UTC
Tuuli 2 kn eri suunnista
Näkyvyys: 3000 m
Hajanaisia pilviä 800 ft:n korkeudessa
utua

TAF: GMME 171100Z 1712/1818 34010KT 8000 NSC TEMPO 1722/1804 VRB02KT 3000 BR SCT008

Säähavainnot ja -ennusteet yli 4000 lentoasemalta (METAR- ja TAF-raportit).

Käytössä olevat sääasemat on merkitty karttaan keltaisilla ja punaisilla pisteillä.

Aseta hiiri pisteen päälle nähdäksesi sääaseman nimen.

Klikkaa sitten nähdäksesi säähavainnot ja -ennusteet.

Kartan vaihtaminen: klikkaa mustalla rastilla varustettuja vihreitä pisteitä, niin voit zoomata sisään; viivalla varustettua vihreää pistettä, niin voit zoomata ulos tai vihreitä nuolia, niin pääset viereisille kartoille.


METAR-TAF: